createdAt,value
2018-12-24T00:02:23.593Z,82.00
2018-12-24T00:04:52.687Z,83.47
2018-12-24T00:07:21.784Z,82.00
2018-12-24T00:09:50.581Z,79.37
2018-12-24T00:12:19.819Z,81.37
2018-12-24T00:14:48.825Z,80.67
2018-12-24T00:17:19.010Z,80.30
2018-12-24T00:19:47.855Z,76.53
2018-12-24T00:22:16.459Z,79.27
2018-12-24T00:24:45.741Z,78.73
2018-12-24T00:27:14.722Z,79.20
2018-12-24T00:29:44.110Z,77.53
2018-12-24T00:32:13.215Z,74.90
2018-12-24T00:34:42.154Z,75.80
2018-12-24T00:37:11.317Z,72.07
2018-12-24T00:39:40.337Z,75.00
2018-12-24T00:42:15.793Z,74.47
2018-12-24T00:44:40.491Z,68.60
2018-12-24T00:47:09.248Z,71.13
2018-12-24T00:49:38.442Z,71.00
2018-12-24T00:52:07.798Z,72.37
2018-12-24T00:54:36.535Z,71.73
2018-12-24T00:57:05.746Z,70.73
2018-12-24T00:59:34.409Z,70.73
2018-12-24T01:02:03.801Z,70.80
2018-12-24T01:04:32.555Z,67.93
2018-12-24T01:07:01.775Z,67.43
2018-12-24T01:09:30.642Z,61.77
2018-12-24T01:11:59.576Z,62.87
2018-12-24T01:14:28.731Z,62.43
2018-12-24T01:16:57.565Z,68.17
2018-12-24T01:19:26.471Z,62.83
2018-12-24T01:21:55.817Z,61.97
2018-12-24T01:24:24.957Z,56.77
2018-12-24T01:26:53.793Z,60.77
2018-12-24T01:29:22.891Z,64.97
2018-12-24T01:31:51.619Z,62.33
2018-12-24T01:34:20.973Z,59.97
2018-12-24T01:36:50.204Z,62.10
2018-12-24T01:39:18.956Z,61.23
2018-12-24T01:41:48.192Z,62.33
2018-12-24T01:44:16.951Z,59.03
2018-12-24T01:46:46.423Z,59.20
2018-12-24T01:49:15.581Z,58.47
2018-12-24T01:51:44.914Z,57.50
2018-12-24T01:54:13.572Z,61.70
2018-12-24T01:56:42.579Z,59.53
2018-12-24T01:59:11.770Z,59.10
2018-12-24T02:01:40.935Z,64.83
2018-12-24T02:04:10.032Z,61.60
2018-12-24T02:06:39.071Z,62.00
2018-12-24T02:09:08.041Z,62.70
2018-12-24T02:11:37.146Z,62.37
2018-12-24T02:14:06.026Z,61.73
2018-12-24T02:16:34.711Z,58.50
2018-12-24T02:19:03.689Z,63.53
2018-12-24T02:21:32.890Z,64.57
2018-12-24T02:24:02.016Z,63.90
2018-12-24T02:26:30.900Z,64.40
2018-12-24T02:28:59.571Z,62.60
2018-12-24T02:31:28.776Z,62.60
2018-12-24T02:33:58.053Z,62.80
2018-12-24T02:36:26.750Z,66.07
2018-12-24T02:38:55.720Z,62.10
2018-12-24T02:41:24.226Z,63.47
2018-12-24T02:43:53.688Z,64.43
2018-12-24T02:46:22.471Z,64.03
2018-12-24T02:48:51.804Z,64.83
2018-12-24T02:51:20.915Z,62.00
2018-12-24T02:53:49.906Z,65.40
2018-12-24T02:56:19.070Z,64.63
2018-12-24T02:58:48.260Z,60.00
2018-12-24T03:01:17.271Z,62.77
2018-12-24T03:03:45.975Z,64.67
2018-12-24T03:06:15.352Z,59.67
2018-12-24T03:08:43.958Z,63.10
2018-12-24T03:11:13.192Z,64.20
2018-12-24T03:13:42.219Z,63.50
2018-12-24T03:16:11.323Z,62.17
2018-12-24T03:18:40.253Z,64.27
2018-12-24T03:21:09.130Z,66.03
2018-12-24T03:23:37.949Z,64.47
2018-12-24T03:26:07.073Z,64.43
2018-12-24T03:28:36.091Z,65.73
2018-12-24T03:31:04.684Z,67.93
2018-12-24T03:33:33.829Z,68.80
2018-12-24T03:36:02.741Z,72.77
2018-12-24T03:38:32.066Z,71.93
2018-12-24T03:41:01.290Z,63.93
2018-12-24T03:43:30.308Z,61.97
2018-12-24T03:45:59.336Z,64.63
2018-12-24T03:48:28.163Z,64.20
2018-12-24T03:50:57.347Z,62.07
2018-12-24T03:53:26.026Z,64.37
2018-12-24T03:55:55.194Z,64.53
2018-12-24T03:58:23.779Z,64.47
2018-12-24T04:00:52.961Z,62.83
2018-12-24T04:03:22.050Z,61.70
2018-12-24T04:05:50.634Z,64.27
2018-12-24T04:08:19.470Z,66.13
2018-12-24T04:10:48.619Z,66.43
2018-12-24T04:13:22.500Z,67.23
2018-12-24T04:15:48.581Z,65.97
2018-12-24T04:18:17.696Z,66.67
2018-12-24T04:20:47.504Z,63.40
2018-12-24T04:23:16.496Z,67.87
2018-12-24T04:25:45.759Z,60.43
2018-12-24T04:28:14.878Z,61.93
2018-12-24T04:30:44.009Z,62.73
2018-12-24T04:33:13.035Z,62.93
2018-12-24T04:35:42.105Z,65.57
2018-12-24T04:38:10.838Z,65.03
2018-12-24T04:40:39.904Z,68.23
2018-12-24T04:43:08.910Z,66.63
2018-12-24T04:45:38.106Z,63.20
2018-12-24T04:48:07.016Z,65.40
2018-12-24T04:50:35.732Z,64.20
2018-12-24T04:53:04.714Z,67.13
2018-12-24T04:55:33.807Z,67.53
2018-12-24T04:58:03.162Z,65.40
2018-12-24T05:00:32.263Z,61.93
2018-12-24T05:03:01.555Z,66.70
2018-12-24T05:05:30.687Z,62.30
2018-12-24T05:07:59.596Z,63.30
2018-12-24T05:10:28.302Z,62.57
2018-12-24T05:12:57.330Z,62.20
2018-12-24T05:15:26.133Z,61.40
2018-12-24T05:17:55.133Z,59.87
2018-12-24T05:20:23.728Z,61.93
2018-12-24T05:22:53.099Z,58.10
2018-12-24T05:25:22.387Z,63.63
2018-12-24T05:27:51.176Z,63.93
2018-12-24T05:30:20.357Z,60.80
2018-12-24T05:32:49.486Z,63.60
2018-12-24T05:35:18.787Z,57.97
2018-12-24T05:37:47.832Z,64.73
2018-12-24T05:40:16.890Z,58.67
2018-12-24T05:42:46.091Z,57.73
2018-12-24T05:45:14.783Z,61.30
2018-12-24T05:47:44.236Z,61.80
2018-12-24T05:50:13.277Z,61.33
2018-12-24T05:52:42.272Z,60.57
2018-12-24T05:55:11.163Z,61.67
2018-12-24T05:57:40.476Z,68.37
2018-12-24T06:00:09.732Z,66.05
2018-12-24T06:02:38.448Z,64.73
2018-12-24T06:05:07.714Z,66.97
2018-12-24T06:07:36.534Z,72.03
2018-12-24T06:10:05.521Z,73.27
2018-12-24T06:12:34.790Z,72.03
2018-12-24T06:15:03.967Z,68.90
2018-12-24T06:17:36.755Z,65.83
2018-12-24T06:20:06.620Z,70.17
2018-12-24T06:22:35.426Z,70.40
2018-12-24T06:25:04.766Z,74.40
2018-12-24T06:27:33.860Z,70.50
2018-12-24T06:30:03.115Z,72.13
2018-12-24T06:32:31.880Z,68.30
2018-12-24T06:35:00.848Z,74.40
2018-12-24T06:37:29.953Z,74.77
2018-12-24T06:39:58.813Z,74.03
2018-12-24T06:42:28.180Z,76.40
2018-12-24T06:44:57.403Z,76.80
2018-12-24T06:47:26.244Z,74.73
2018-12-24T06:49:55.523Z,79.10
2018-12-24T06:52:24.741Z,72.23
2018-12-24T06:54:53.631Z,73.13
2018-12-24T06:57:22.440Z,74.10
2018-12-24T06:59:51.153Z,66.07
2018-12-24T07:02:20.373Z,78.60
2018-12-24T07:04:49.157Z,79.57
2018-12-24T07:07:17.777Z,79.00
2018-12-24T07:09:46.254Z,80.17
2018-12-24T07:12:20.904Z,80.03
2018-12-24T07:14:52.149Z,81.43
2018-12-24T07:17:20.814Z,78.53
2018-12-24T07:19:50.481Z,77.00
2018-12-24T07:22:19.002Z,80.40
2018-12-24T07:24:48.285Z,90.90
2018-12-24T07:27:18.259Z,91.63
2018-12-24T07:29:47.198Z,91.33
2018-12-24T07:32:15.991Z,93.93
2018-12-24T07:34:45.264Z,96.77
2018-12-24T07:37:14.078Z,93.53
2018-12-24T07:39:43.545Z,93.53
2018-12-24T07:42:12.631Z,101.10
2018-12-24T07:44:41.504Z,96.40
2018-12-24T07:47:10.310Z,97.10
2018-12-24T07:49:39.535Z,91.50
2018-12-24T07:52:08.532Z,87.73
2018-12-24T07:54:37.291Z,95.30
2018-12-24T07:57:06.226Z,92.03
2018-12-24T07:59:35.112Z,87.07
2018-12-24T08:02:04.937Z,83.67
2018-12-24T08:04:33.779Z,77.77
2018-12-24T08:11:17.938Z,81.03
2018-12-24T08:13:46.607Z,82.17
2018-12-24T08:16:15.900Z,78.53
2018-12-24T08:18:45.045Z,77.33
2018-12-24T08:21:13.857Z,76.67
2018-12-24T08:23:42.848Z,76.07
2018-12-24T08:26:20.851Z,72.73
2018-12-24T08:28:49.980Z,72.43
2018-12-24T08:31:18.742Z,71.47
2018-12-24T08:33:47.541Z,70.63
2018-12-24T08:36:16.311Z,69.70
2018-12-24T08:38:45.681Z,66.43
2018-12-24T08:41:14.572Z,64.03
2018-12-24T08:43:43.866Z,64.77
2018-12-24T08:46:12.501Z,57.83
2018-12-24T08:48:41.169Z,63.67
2018-12-24T08:51:10.252Z,56.97
2018-12-24T08:53:39.521Z,69.93
2018-12-24T08:56:09.851Z,72.80
2018-12-24T08:58:38.817Z,76.77
2018-12-24T09:01:07.519Z,72.47
2018-12-24T09:03:36.258Z,71.40
2018-12-24T09:06:05.623Z,68.90
2018-12-24T09:08:34.551Z,68.13
2018-12-24T09:11:03.839Z,71.50
2018-12-24T09:13:32.706Z,61.43
2018-12-24T09:16:01.417Z,74.63
2018-12-24T09:18:30.697Z,73.97
2018-12-24T09:20:59.587Z,64.27
2018-12-24T09:23:28.726Z,73.90
2018-12-24T09:25:58.126Z,76.57
2018-12-24T09:28:27.604Z,70.97
2018-12-24T09:30:57.243Z,75.10
2018-12-24T09:33:27.071Z,68.03
2018-12-24T09:35:56.990Z,73.70
2018-12-24T09:38:26.342Z,70.43
2018-12-24T09:40:55.504Z,71.90
2018-12-24T09:43:25.221Z,69.37
2018-12-24T09:45:55.615Z,69.10
2018-12-24T09:48:25.664Z,72.77
2018-12-24T09:50:55.753Z,68.60
2018-12-24T09:53:25.538Z,69.87
2018-12-24T09:55:55.554Z,60.07
2018-12-24T09:58:25.490Z,75.23
2018-12-24T10:00:55.547Z,66.87
2018-12-24T10:03:30.420Z,67.13
2018-12-24T10:06:08.312Z,78.12
2018-12-24T10:08:38.242Z,90.43
2018-12-24T10:11:07.681Z,73.67
2018-12-24T10:13:37.798Z,78.07
2018-12-24T10:16:08.547Z,79.63
2018-12-24T10:18:38.948Z,77.50
2018-12-24T10:21:14.250Z,73.43
2018-12-24T10:23:48.909Z,77.17
2018-12-24T10:26:24.888Z,74.90
2018-12-24T10:28:53.885Z,76.87
2018-12-24T10:31:24.260Z,76.17
2018-12-24T10:33:54.432Z,74.83
2018-12-24T10:36:24.659Z,73.03
2018-12-24T10:38:54.320Z,78.13
2018-12-24T10:41:26.953Z,74.50
2018-12-24T10:43:57.920Z,73.27
2018-12-24T10:46:35.714Z,74.50
2018-12-24T10:49:06.518Z,73.17
2018-12-24T10:51:37.134Z,73.67
2018-12-24T10:54:08.598Z,78.70
2018-12-24T10:56:39.859Z,72.57
2018-12-24T10:59:09.324Z,80.50
2018-12-24T11:01:38.956Z,89.07
2018-12-24T11:04:09.021Z,74.93
2018-12-24T11:06:40.626Z,72.60
2018-12-24T11:09:33.453Z,75.73
2018-12-24T11:12:04.147Z,65.50
2018-12-24T11:14:33.012Z,67.33
2018-12-24T11:17:02.275Z,69.33
2018-12-24T11:19:31.393Z,71.00
2018-12-24T11:22:00.578Z,63.90
2018-12-24T11:24:29.672Z,70.50
2018-12-24T11:26:58.548Z,67.77
2018-12-24T11:29:27.670Z,69.87
2018-12-24T11:31:56.687Z,64.60
2018-12-24T11:34:25.590Z,68.03
2018-12-24T11:36:54.658Z,65.93
2018-12-24T11:39:23.987Z,64.10
2018-12-24T11:42:11.876Z,60.40
2018-12-24T11:44:41.259Z,62.77
2018-12-24T11:47:11.474Z,57.90
2018-12-24T11:49:40.730Z,61.27
2018-12-24T11:52:10.245Z,60.97
2018-12-24T11:54:39.981Z,60.33
2018-12-24T11:57:09.644Z,67.03
2018-12-24T11:59:39.369Z,64.63
2018-12-24T12:02:10.371Z,59.43
2018-12-24T12:04:39.623Z,62.93
2018-12-24T12:07:09.174Z,62.60
2018-12-24T12:09:39.645Z,65.67
2018-12-24T12:12:09.381Z,65.63
2018-12-24T12:14:39.827Z,68.55
2018-12-24T12:17:09.492Z,65.20
2018-12-24T12:19:39.744Z,65.57
2018-12-24T12:22:09.412Z,65.20
2018-12-24T12:24:48.933Z,62.27
2018-12-24T12:27:18.411Z,62.33
2018-12-24T12:29:49.258Z,61.47
2018-12-24T12:32:20.967Z,63.97
2018-12-24T12:34:50.602Z,61.17
2018-12-24T12:37:21.779Z,57.43
2018-12-24T12:39:53.505Z,57.40
2018-12-24T12:42:22.864Z,60.13
2018-12-24T12:44:52.569Z,58.23
2018-12-24T12:47:21.843Z,55.53
2018-12-24T12:49:51.396Z,56.53
2018-12-24T12:52:20.879Z,56.57
2018-12-24T12:54:50.947Z,55.93
2018-12-24T12:57:20.665Z,59.67
2018-12-24T12:59:49.578Z,61.75
2018-12-24T13:02:19.087Z,54.97
2018-12-24T13:04:48.397Z,55.07
2018-12-24T13:07:17.741Z,58.17
2018-12-24T13:09:47.225Z,45.40
2018-12-24T13:12:16.252Z,55.57
2018-12-24T13:14:45.111Z,56.37
2018-12-24T13:17:13.745Z,50.67
2018-12-24T13:19:42.601Z,51.77
2018-12-24T13:22:12.082Z,49.93
2018-12-24T13:24:42.153Z,49.07
2018-12-24T13:27:11.339Z,51.27
2018-12-24T13:29:40.606Z,49.37
2018-12-24T13:32:10.678Z,51.87
2018-12-24T13:34:39.870Z,59.73
2018-12-24T13:37:09.301Z,56.80
2018-12-24T13:39:38.634Z,56.93
2018-12-24T13:42:07.927Z,58.17
2018-12-24T13:44:37.053Z,58.33
2018-12-24T13:47:06.338Z,56.90
2018-12-24T13:49:35.680Z,56.53
2018-12-24T13:52:05.241Z,56.60
2018-12-24T13:54:34.525Z,56.53
2018-12-24T13:57:03.620Z,52.10
2018-12-24T13:59:32.815Z,51.33
2018-12-24T14:02:02.551Z,50.70
2018-12-24T14:04:31.644Z,51.43
2018-12-24T14:07:00.630Z,51.90
2018-12-24T14:09:29.824Z,51.63
2018-12-24T14:11:58.990Z,53.63
2018-12-24T14:14:28.273Z,55.73
2018-12-24T14:16:57.183Z,56.97
2018-12-24T14:19:26.588Z,56.97
2018-12-24T14:21:56.619Z,53.90
2018-12-24T14:24:25.802Z,54.17
2018-12-24T14:26:54.852Z,56.63
2018-12-24T14:29:27.667Z,60.33
2018-12-24T14:31:58.876Z,57.20
2018-12-24T14:34:28.241Z,57.60
2018-12-24T14:36:57.489Z,58.57
2018-12-24T14:39:26.776Z,58.23
2018-12-24T14:41:55.563Z,60.50
2018-12-24T14:44:26.268Z,61.83
2018-12-24T14:46:55.434Z,56.47
2018-12-24T14:49:24.858Z,57.57
2018-12-24T14:51:54.351Z,59.43
2018-12-24T14:54:23.431Z,55.17
2018-12-24T14:56:52.563Z,56.57
2018-12-24T14:59:21.586Z,55.33
2018-12-24T15:01:50.759Z,59.53
2018-12-24T15:04:19.667Z,64.43
2018-12-24T15:06:49.547Z,61.20
2018-12-24T15:09:18.933Z,58.70
2018-12-24T15:11:47.572Z,64.97
2018-12-24T15:14:16.908Z,67.50
2018-12-24T15:16:45.983Z,63.63
2018-12-24T15:19:15.332Z,66.73
2018-12-24T15:21:44.254Z,68.07
2018-12-24T15:24:13.314Z,73.47
2018-12-24T15:26:42.255Z,71.97
2018-12-24T15:29:11.098Z,74.53
2018-12-24T15:31:41.584Z,72.57
2018-12-24T15:34:11.010Z,70.80
2018-12-24T15:36:52.415Z,74.87
2018-12-24T15:39:25.878Z,80.43
2018-12-24T15:41:56.441Z,69.87
2018-12-24T15:44:26.950Z,74.10
2018-12-24T15:46:57.176Z,70.80
2018-12-24T15:49:27.846Z,71.70
2018-12-24T15:51:58.008Z,70.73
2018-12-24T15:54:27.654Z,67.83
2018-12-24T15:56:57.528Z,74.07
2018-12-24T15:59:28.046Z,83.03
2018-12-24T16:01:58.744Z,84.90
2018-12-24T16:04:28.861Z,87.03
2018-12-24T16:06:59.644Z,82.73
2018-12-24T16:09:30.321Z,86.13
2018-12-24T16:12:02.143Z,83.77
2018-12-24T16:14:33.580Z,96.87
2018-12-24T16:17:03.657Z,97.10
2018-12-24T16:19:37.516Z,80.30
2018-12-24T16:22:08.140Z,73.63
2018-12-24T16:24:39.798Z,85.80
2018-12-24T16:27:08.636Z,102.23
2018-12-24T16:29:38.692Z,79.33
2018-12-24T16:32:08.859Z,84.50
2018-12-24T16:34:39.568Z,77.63
2018-12-24T16:37:09.294Z,74.30
2018-12-24T16:39:39.399Z,75.63
2018-12-24T16:42:09.748Z,80.70
2018-12-24T16:44:39.703Z,77.87
2018-12-24T16:47:09.969Z,79.27
2018-12-24T16:49:39.875Z,81.63
2018-12-24T16:52:09.130Z,90.70
2018-12-24T16:54:39.150Z,98.60
2018-12-24T16:57:09.344Z,103.53
2018-12-24T16:59:41.169Z,87.87
2018-12-24T17:02:11.046Z,91.30
2018-12-24T17:04:41.012Z,100.42
2018-12-24T17:07:10.330Z,100.33
2018-12-24T17:09:39.481Z,89.97
2018-12-24T17:12:10.424Z,88.83
2018-12-24T17:14:40.869Z,88.03
2018-12-24T17:17:10.860Z,82.27
2018-12-24T17:19:40.904Z,86.67
2018-12-24T17:22:11.165Z,85.03
2018-12-24T17:24:40.728Z,91.07
2018-12-24T17:27:11.291Z,85.97
2018-12-24T17:29:40.579Z,79.20
2018-12-24T17:32:10.640Z,79.43
2018-12-24T17:34:40.288Z,87.57
2018-12-24T17:37:09.300Z,90.80
2018-12-24T17:39:41.901Z,100.33
2018-12-24T17:42:12.066Z,112.47
2018-12-24T17:44:41.647Z,102.30
2018-12-24T17:47:16.286Z,82.83
2018-12-24T17:49:42.337Z,77.13
2018-12-24T17:52:11.244Z,71.57
2018-12-24T17:54:40.617Z,73.60
2018-12-24T17:57:09.523Z,72.73
2018-12-24T17:59:42.242Z,73.43
2018-12-24T18:02:10.906Z,78.73
2018-12-24T18:04:40.136Z,78.87
2018-12-24T18:07:12.136Z,78.57
2018-12-24T18:09:42.291Z,89.00
2018-12-24T18:12:11.342Z,73.07
2018-12-24T18:14:40.568Z,77.03
2018-12-24T18:17:24.891Z,104.20
2018-12-24T18:19:53.273Z,96.50
2018-12-24T18:22:29.746Z,89.63
2018-12-24T18:24:59.419Z,74.40
2018-12-24T18:27:34.051Z,95.00
2018-12-24T18:30:10.272Z,91.57
2018-12-24T18:32:49.800Z,85.70
2018-12-24T18:35:25.947Z,78.43
2018-12-24T18:38:08.588Z,76.67
2018-12-24T18:40:39.513Z,74.23
2018-12-24T18:43:08.501Z,76.57
2018-12-24T18:45:37.493Z,77.07
2018-12-24T18:48:06.509Z,77.43
2018-12-24T18:50:43.376Z,84.07
2018-12-24T18:53:13.615Z,77.67
2018-12-24T18:55:42.717Z,63.17
2018-12-24T18:58:12.750Z,82.27
2018-12-24T19:00:41.846Z,86.13
2018-12-24T19:03:11.819Z,82.07
2018-12-24T19:05:41.424Z,86.07
2018-12-24T19:08:30.346Z,113.73
2018-12-24T19:10:59.717Z,119.80
2018-12-24T19:13:29.692Z,127.40
2018-12-24T19:15:59.264Z,91.50
2018-12-24T19:18:28.726Z,83.77
2018-12-24T19:20:58.650Z,94.10
2018-12-24T19:23:28.740Z,92.10
2018-12-24T19:25:59.111Z,87.27
2018-12-24T19:28:29.062Z,86.27
2018-12-24T19:30:58.545Z,86.27
2018-12-24T19:33:28.604Z,83.47
2018-12-24T19:35:59.556Z,81.97
2018-12-24T19:38:28.759Z,98.43
2018-12-24T19:41:21.455Z,93.13
2018-12-24T19:43:52.475Z,92.67
2018-12-24T19:46:21.577Z,92.57
2018-12-24T19:48:53.789Z,95.63
2018-12-24T19:51:32.017Z,97.87
2018-12-24T19:54:03.743Z,89.70
2018-12-24T19:56:32.455Z,86.80
2018-12-24T19:59:01.979Z,80.17
2018-12-24T20:01:30.825Z,77.23
2018-12-24T20:03:59.789Z,81.30
2018-12-24T20:06:32.466Z,85.27
2018-12-24T20:09:01.295Z,90.13
2018-12-24T20:11:30.910Z,74.10
2018-12-24T20:13:59.983Z,70.27
2018-12-24T20:16:29.088Z,68.90
2018-12-24T20:18:57.881Z,64.87
2018-12-24T20:21:26.966Z,63.57
2018-12-24T20:23:58.056Z,53.23
2018-12-24T20:26:27.315Z,48.57
2018-12-24T20:28:56.500Z,47.30
2018-12-24T20:31:25.496Z,44.80
2018-12-24T20:33:54.385Z,44.00
2018-12-24T20:36:23.480Z,50.10
2018-12-24T20:38:52.471Z,47.23
2018-12-24T20:41:21.260Z,53.50
2018-12-24T20:43:50.536Z,48.23
2018-12-24T20:46:19.414Z,46.53
2018-12-24T20:48:48.232Z,50.20
2018-12-24T20:51:17.434Z,50.13
2018-12-24T20:53:46.426Z,46.10
2018-12-24T20:56:15.984Z,45.53
2018-12-24T20:58:45.364Z,43.83
2018-12-24T21:01:15.006Z,43.10
2018-12-24T21:03:48.472Z,43.33
2018-12-24T21:06:18.778Z,43.53
2018-12-24T21:08:47.569Z,41.80
2018-12-24T21:11:19.832Z,45.87
2018-12-24T21:13:49.820Z,39.93
2018-12-24T21:16:18.671Z,37.13
2018-12-24T21:18:50.260Z,32.70
2018-12-24T21:21:20.938Z,30.43
2018-12-24T21:23:51.008Z,30.67
2018-12-24T21:26:21.488Z,30.80
2018-12-24T21:28:52.411Z,33.60
2018-12-24T21:31:21.509Z,48.37
2018-12-24T21:33:51.680Z,42.00
2018-12-24T21:36:23.002Z,42.27
2018-12-24T21:38:51.611Z,30.50
2018-12-24T21:41:22.777Z,24.80
2018-12-24T21:43:52.921Z,25.57
2018-12-24T21:46:24.590Z,23.97
2018-12-24T21:49:02.068Z,26.87
2018-12-24T21:51:32.685Z,25.80
2018-12-24T21:54:01.943Z,28.83
2018-12-24T21:56:30.885Z,42.73
2018-12-24T21:59:00.143Z,35.17
2018-12-24T22:01:29.058Z,28.57
2018-12-24T22:03:58.043Z,28.23
2018-12-24T22:06:27.125Z,40.97
2018-12-24T22:08:55.977Z,27.27
2018-12-24T22:11:24.821Z,24.83
2018-12-24T22:13:54.052Z,23.23
2018-12-24T22:16:22.923Z,27.10
2018-12-24T22:18:52.034Z,25.30
2018-12-24T22:21:20.915Z,22.83
2018-12-24T22:23:50.106Z,30.20
2018-12-24T22:26:19.081Z,27.37
2018-12-24T22:28:47.832Z,23.87
2018-12-24T22:31:16.484Z,22.60
2018-12-24T22:33:45.239Z,21.10
2018-12-24T22:36:14.612Z,21.07
2018-12-24T22:38:43.219Z,22.43
2018-12-24T22:41:12.527Z,27.70
2018-12-24T22:43:41.703Z,34.50
2018-12-24T22:46:11.034Z,33.07
2018-12-24T22:48:41.198Z,34.07
2018-12-24T22:51:10.325Z,23.23
2018-12-24T22:53:40.025Z,17.43
2018-12-24T22:56:09.132Z,19.30
2018-12-24T22:58:38.249Z,22.80
2018-12-24T23:01:07.706Z,17.53
2018-12-24T23:03:37.372Z,18.33
2018-12-24T23:06:07.395Z,17.03
2018-12-24T23:08:37.216Z,18.93
2018-12-24T23:11:07.323Z,16.40
2018-12-24T23:13:36.614Z,15.77
2018-12-24T23:16:05.682Z,17.63
2018-12-24T23:18:34.778Z,17.80
2018-12-24T23:21:04.665Z,17.17
2018-12-24T23:23:34.102Z,16.83
2018-12-24T23:26:03.220Z,14.23
2018-12-24T23:28:31.990Z,14.37
2018-12-24T23:31:00.721Z,17.07
2018-12-24T23:33:30.157Z,14.50
2018-12-24T23:35:58.953Z,15.77
2018-12-24T23:38:28.872Z,27.40
2018-12-24T23:40:58.188Z,17.03
2018-12-24T23:43:26.987Z,17.80
2018-12-24T23:45:56.054Z,16.37
2018-12-24T23:48:25.574Z,16.03
2018-12-24T23:50:55.366Z,16.30
2018-12-24T23:53:24.354Z,16.33
2018-12-24T23:55:53.270Z,15.57
2018-12-24T23:58:22.036Z,17.53
